sensor_id;sensor_type;location;lat;lon;timestamp;pressure;altitude;pressure_sealevel;temperature;humidity
61674;BME280;47573;43.832;5.974;2023-02-28T00:06:24;94792.88;;;21.03;70.93
61674;BME280;47573;43.832;5.974;2023-02-28T00:13:07;94798.44;;;20.97;71.14
61674;BME280;47573;43.832;5.974;2023-02-28T00:19:47;94798.34;;;20.92;71.07
61674;BME280;47573;43.832;5.974;2023-02-28T00:26:28;94798.75;;;20.83;70.93
61674;BME280;47573;43.832;5.974;2023-02-28T00:33:10;94791.22;;;20.74;71.16
61674;BME280;47573;43.832;5.974;2023-02-28T00:39:51;94791.72;;;20.71;70.99
61674;BME280;47573;43.832;5.974;2023-02-28T00:46:32;94813.53;;;20.64;71.11
61674;BME280;47573;43.832;5.974;2023-02-28T00:53:13;94819.56;;;20.66;70.80
61674;BME280;47573;43.832;5.974;2023-02-28T00:59:54;94815.31;;;20.59;70.78
61674;BME280;47573;43.832;5.974;2023-02-28T01:06:35;94813.78;;;20.63;70.33
61674;BME280;47573;43.832;5.974;2023-02-28T01:13:17;94815.19;;;20.65;70.17
61674;BME280;47573;43.832;5.974;2023-02-28T01:19:58;94823.03;;;20.50;70.39
61674;BME280;47573;43.832;5.974;2023-02-28T01:26:38;94826.78;;;20.49;70.36
61674;BME280;47573;43.832;5.974;2023-02-28T01:33:20;94826.78;;;20.49;70.48
61674;BME280;47573;43.832;5.974;2023-02-28T01:40:01;94829.38;;;20.44;70.25
61674;BME280;47573;43.832;5.974;2023-02-28T01:46:44;94833.63;;;20.40;69.68
61674;BME280;47573;43.832;5.974;2023-02-28T01:53:31;94844.00;;;20.43;69.66
61674;BME280;47573;43.832;5.974;2023-02-28T02:00:15;94849.56;;;20.37;69.47
61674;BME280;47573;43.832;5.974;2023-02-28T02:06:58;94845.44;;;20.34;69.45
61674;BME280;47573;43.832;5.974;2023-02-28T02:14:09;94842.63;;;20.29;69.62
61674;BME280;47573;43.832;5.974;2023-02-28T02:21:16;94853.59;;;20.23;69.37
61674;BME280;47573;43.832;5.974;2023-02-28T02:35:13;94862.75;;;20.22;69.07
61674;BME280;47573;43.832;5.974;2023-02-28T02:41:59;94860.16;;;20.15;69.13
61674;BME280;47573;43.832;5.974;2023-02-28T02:48:43;94860.75;;;20.17;69.10
61674;BME280;47573;43.832;5.974;2023-02-28T02:55:27;94861.22;;;20.14;69.01
61674;BME280;47573;43.832;5.974;2023-02-28T03:02:11;94864.38;;;20.11;68.99
61674;BME280;47573;43.832;5.974;2023-02-28T03:08:53;94859.69;;;20.07;68.97
61674;BME280;47573;43.832;5.974;2023-02-28T03:15:45;94847.44;;;20.04;69.01
61674;BME280;47573;43.832;5.974;2023-02-28T03:22:52;94844.38;;;20.00;68.96
61674;BME280;47573;43.832;5.974;2023-02-28T03:29:39;94840.72;;;19.95;69.13
61674;BME280;47573;43.832;5.974;2023-02-28T03:36:26;94841.19;;;19.92;69.04
61674;BME280;47573;43.832;5.974;2023-02-28T03:43:12;94831.88;;;19.88;69.03
61674;BME280;47573;43.832;5.974;2023-02-28T03:49:57;94832.34;;;19.85;68.84
61674;BME280;47573;43.832;5.974;2023-02-28T03:56:44;94817.63;;;19.81;68.67
61674;BME280;47573;43.832;5.974;2023-02-28T04:03:27;94827.28;;;19.77;68.74
61674;BME280;47573;43.832;5.974;2023-02-28T04:10:09;94828.22;;;19.71;68.75
61674;BME280;47573;43.832;5.974;2023-02-28T04:16:51;94827.16;;;19.72;68.70
61674;BME280;47573;43.832;5.974;2023-02-28T04:23:32;94823.25;;;19.68;68.64
61674;BME280;47573;43.832;5.974;2023-02-28T04:30:13;94825.63;;;19.64;68.71
61674;BME280;47573;43.832;5.974;2023-02-28T04:36:55;94818.19;;;19.60;68.66
61674;BME280;47573;43.832;5.974;2023-02-28T04:43:36;94821.13;;;19.58;68.52
61674;BME280;47573;43.832;5.974;2023-02-28T04:50:17;94820.31;;;19.58;68.30
61674;BME280;47573;43.832;5.974;2023-02-28T04:56:59;94829.97;;;19.54;68.36
61674;BME280;47573;43.832;5.974;2023-02-28T05:03:39;94824.78;;;19.52;68.18
61674;BME280;47573;43.832;5.974;2023-02-28T05:10:20;94830.44;;;19.51;67.98
61674;BME280;47573;43.832;5.974;2023-02-28T05:17:02;94835.72;;;19.46;68.09
61674;BME280;47573;43.832;5.974;2023-02-28T05:23:42;94839.47;;;19.45;68.08
61674;BME280;47573;43.832;5.974;2023-02-28T05:30:23;94848.31;;;19.40;67.99
61674;BME280;47573;43.832;5.974;2023-02-28T05:37:05;94850.44;;;19.38;67.75
61674;BME280;47573;43.832;5.974;2023-02-28T05:43:45;94857.94;;;19.36;67.82
61674;BME280;47573;43.832;5.974;2023-02-28T05:50:26;94861.31;;;19.32;67.81
61674;BME280;47573;43.832;5.974;2023-02-28T05:57:08;94854.22;;;19.31;67.89
61674;BME280;47573;43.832;5.974;2023-02-28T06:03:49;94856.81;;;19.25;67.84
61674;BME280;47573;43.832;5.974;2023-02-28T06:10:29;94852.34;;;19.19;68.00
61674;BME280;47573;43.832;5.974;2023-02-28T06:17:11;94856.09;;;19.18;67.92
61674;BME280;47573;43.832;5.974;2023-02-28T06:23:52;94863.16;;;19.19;67.54
61674;BME280;47573;43.832;5.974;2023-02-28T06:30:32;94871.50;;;19.18;67.55
61674;BME280;47573;43.832;5.974;2023-02-28T06:37:14;94872.78;;;19.15;67.63
61674;BME280;47573;43.832;5.974;2023-02-28T06:43:55;94885.69;;;19.13;67.45
61674;BME280;47573;43.832;5.974;2023-02-28T06:50:35;94889.91;;;19.09;67.53
61674;BME280;47573;43.832;5.974;2023-02-28T06:57:17;94897.44;;;19.07;67.60
61674;BME280;47573;43.832;5.974;2023-02-28T07:03:58;94917.44;;;19.06;67.49
61674;BME280;47573;43.832;5.974;2023-02-28T07:10:39;94917.44;;;19.06;67.36
61674;BME280;47573;43.832;5.974;2023-02-28T07:17:21;94920.59;;;19.03;67.39
61674;BME280;47573;43.832;5.974;2023-02-28T07:24:02;94936.72;;;18.98;67.42
61674;BME280;47573;43.832;5.974;2023-02-28T07:30:42;94944.66;;;18.93;67.52
61674;BME280;47573;43.832;5.974;2023-02-28T07:37:24;94948.53;;;19.15;67.14
61674;BME280;47573;43.832;5.974;2023-02-28T07:44:05;94962.09;;;19.34;66.63
61674;BME280;47573;43.832;5.974;2023-02-28T07:50:54;94965.75;;;19.39;67.20
61674;BME280;47573;43.832;5.974;2023-02-28T07:57:36;94972.72;;;19.47;67.65
61674;BME280;47573;43.832;5.974;2023-02-28T08:04:17;94987.69;;;19.49;68.16
61674;BME280;47573;43.832;5.974;2023-02-28T08:10:59;94986.88;;;19.49;68.47
61674;BME280;47573;43.832;5.974;2023-02-28T08:17:41;94985.50;;;19.58;68.16
61674;BME280;47573;43.832;5.974;2023-02-28T08:24:22;95000.38;;;19.67;68.28
61674;BME280;47573;43.832;5.974;2023-02-28T08:31:07;94986.50;;;19.75;68.11
61674;BME280;47573;43.832;5.974;2023-02-28T08:37:49;95014.34;;;19.82;68.29
61674;BME280;47573;43.832;5.974;2023-02-28T08:44:30;95004.53;;;19.81;68.38
61674;BME280;47573;43.832;5.974;2023-02-28T08:51:13;95002.56;;;19.88;68.26
61674;BME280;47573;43.832;5.974;2023-02-28T08:57:55;95009.97;;;19.92;68.71
61674;BME280;47573;43.832;5.974;2023-02-28T09:04:35;94999.97;;;19.93;68.38
61674;BME280;47573;43.832;5.974;2023-02-28T09:11:16;94998.13;;;20.05;68.54
61674;BME280;47573;43.832;5.974;2023-02-28T09:17:58;94998.94;;;20.05;68.84
61674;BME280;47573;43.832;5.974;2023-02-28T09:24:39;95003.91;;;20.09;68.50
61674;BME280;47573;43.832;5.974;2023-02-28T09:31:20;95002.84;;;20.10;68.95
61674;BME280;47573;43.832;5.974;2023-02-28T09:38:03;95001.69;;;20.17;69.12
61674;BME280;47573;43.832;5.974;2023-02-28T09:44:46;94992.06;;;20.21;69.05
61674;BME280;47573;43.832;5.974;2023-02-28T09:51:30;94978.19;;;20.29;68.82
61674;BME280;47573;43.832;5.974;2023-02-28T09:58:18;94985.13;;;20.37;69.19
61674;BME280;47573;43.832;5.974;2023-02-28T10:05:04;94996.31;;;20.40;67.98
61674;BME280;47573;43.832;5.974;2023-02-28T10:11:50;94987.28;;;20.46;68.69
61674;BME280;47573;43.832;5.974;2023-02-28T10:18:40;94993.03;;;20.61;68.32
61674;BME280;47573;43.832;5.974;2023-02-28T10:25:24;94991.84;;;20.80;66.04
61674;BME280;47573;43.832;5.974;2023-02-28T10:32:05;94974.41;;;20.76;67.59
61674;BME280;47573;43.832;5.974;2023-02-28T10:38:48;94972.50;;;20.89;67.08
61674;BME280;47573;43.832;5.974;2023-02-28T10:45:30;94981.81;;;20.93;68.59
61674;BME280;47573;43.832;5.974;2023-02-28T10:52:11;94980.75;;;20.94;67.73
61674;BME280;47573;43.832;5.974;2023-02-28T10:58:55;94988.78;;;21.00;68.00
61674;BME280;47573;43.832;5.974;2023-02-28T11:05:36;94985.59;;;21.15;67.22
61674;BME280;47573;43.832;5.974;2023-02-28T11:12:22;94976.00;;;21.24;67.18
61674;BME280;47573;43.832;5.974;2023-02-28T11:19:06;94971.47;;;21.41;66.82
61674;BME280;47573;43.832;5.974;2023-02-28T11:26:00;94971.66;;;21.51;68.24
61674;BME280;47573;43.832;5.974;2023-02-28T11:32:48;94958.00;;;21.46;68.52
61674;BME280;47573;43.832;5.974;2023-02-28T11:39:31;94955.34;;;21.51;68.36
61674;BME280;47573;43.832;5.974;2023-02-28T11:46:20;94953.34;;;21.58;69.95
61674;BME280;47573;43.832;5.974;2023-02-28T11:53:12;94940.91;;;21.62;68.76
61674;BME280;47573;43.832;5.974;2023-02-28T12:00:03;94936.63;;;21.66;68.38
61674;BME280;47573;43.832;5.974;2023-02-28T12:06:51;94937.63;;;21.60;69.31
61674;BME280;47573;43.832;5.974;2023-02-28T12:13:44;94916.34;;;21.57;69.75
61674;BME280;47573;43.832;5.974;2023-02-28T12:20:33;94908.31;;;21.62;69.42
61674;BME280;47573;43.832;5.974;2023-02-28T12:27:19;94902.38;;;21.65;69.47
61674;BME280;47573;43.832;5.974;2023-02-28T12:34:04;94886.91;;;21.66;70.13
61674;BME280;47573;43.832;5.974;2023-02-28T12:40:53;94878.50;;;21.67;69.22
61674;BME280;47573;43.832;5.974;2023-02-28T12:47:35;94887.22;;;21.69;69.68
61674;BME280;47573;43.832;5.974;2023-02-28T12:54:21;94875.19;;;21.65;70.10
61674;BME280;47573;43.832;5.974;2023-02-28T13:15:34;94869.28;;;21.68;69.67
61674;BME280;47573;43.832;5.974;2023-02-28T13:22:22;94867.63;;;21.67;70.74
61674;BME280;47573;43.832;5.974;2023-02-28T13:29:28;94862.19;;;21.67;70.38
61674;BME280;47573;43.832;5.974;2023-02-28T13:36:23;94871.44;;;21.66;70.58
61674;BME280;47573;43.832;5.974;2023-02-28T13:43:08;94856.75;;;21.67;70.47
61674;BME280;47573;43.832;5.974;2023-02-28T13:49:50;94858.41;;;21.68;70.09
61674;BME280;47573;43.832;5.974;2023-02-28T13:56:41;94851.91;;;21.69;71.14
61674;BME280;47573;43.832;5.974;2023-02-28T14:03:41;94856.28;;;21.70;70.34
61674;BME280;47573;43.832;5.974;2023-02-28T14:10:27;94851.44;;;21.72;70.75
61674;BME280;47573;43.832;5.974;2023-02-28T14:17:14;94866.16;;;21.76;70.22
61674;BME280;47573;43.832;5.974;2023-02-28T14:24:32;94860.72;;;21.76;70.28
61674;BME280;47573;43.832;5.974;2023-02-28T14:31:23;94854.81;;;21.79;71.21
61674;BME280;47573;43.832;5.974;2023-02-28T14:38:16;94859.91;;;21.76;70.80
61674;BME280;47573;43.832;5.974;2023-02-28T14:45:00;94851.09;;;21.69;71.10
61674;BME280;47573;43.832;5.974;2023-02-28T14:51:41;94860.00;;;21.81;71.44
61674;BME280;47573;43.832;5.974;2023-02-28T14:58:24;94849.22;;;21.86;70.55
61674;BME280;47573;43.832;5.974;2023-02-28T15:05:24;94844.13;;;21.89;70.82
61674;BME280;47573;43.832;5.974;2023-02-28T15:12:05;94840.00;;;21.87;71.45
61674;BME280;47573;43.832;5.974;2023-02-28T15:18:48;94850.72;;;21.93;71.39
61674;BME280;47573;43.832;5.974;2023-02-28T15:25:31;94840.44;;;21.95;71.54
61674;BME280;47573;43.832;5.974;2023-02-28T15:32:23;94855.66;;;21.96;71.42
61674;BME280;47573;43.832;5.974;2023-02-28T15:39:19;94848.06;;;21.98;72.03
61674;BME280;47573;43.832;5.974;2023-02-28T15:46:02;94847.59;;;22.01;71.82
61674;BME280;47573;43.832;5.974;2023-02-28T15:52:45;94853.03;;;22.01;72.56
61674;BME280;47573;43.832;5.974;2023-02-28T15:59:27;94855.47;;;22.03;71.97
61674;BME280;47573;43.832;5.974;2023-02-28T16:13:23;94857.47;;;22.07;71.38
61674;BME280;47573;43.832;5.974;2023-02-28T16:20:12;94860.75;;;22.09;71.88
61674;BME280;47573;43.832;5.974;2023-02-28T16:26:55;94856.88;;;22.05;71.98
61674;BME280;47573;43.832;5.974;2023-02-28T16:33:38;94866.19;;;22.09;71.97
61674;BME280;47573;43.832;5.974;2023-02-28T16:40:20;94878.16;;;22.08;72.33
61674;BME280;47573;43.832;5.974;2023-02-28T16:47:02;94864.63;;;22.13;72.00
61674;BME280;47573;43.832;5.974;2023-02-28T16:53:45;94872.78;;;22.13;71.51
61674;BME280;47573;43.832;5.974;2023-02-28T17:00:27;94866.34;;;22.19;71.41
61674;BME280;47573;43.832;5.974;2023-02-28T17:07:11;94868.59;;;22.22;71.25
61674;BME280;47573;43.832;5.974;2023-02-28T17:13:54;94871.31;;;22.22;71.32
61674;BME280;47573;43.832;5.974;2023-02-28T17:20:34;94868.66;;;22.27;71.17
61674;BME280;47573;43.832;5.974;2023-02-28T17:27:15;94881.19;;;22.28;71.23
61674;BME280;47573;43.832;5.974;2023-02-28T17:33:57;94889.41;;;22.33;70.99
61674;BME280;47573;43.832;5.974;2023-02-28T17:40:37;94888.63;;;22.55;70.27
61674;BME280;47573;43.832;5.974;2023-02-28T17:47:18;94893.00;;;22.56;70.56
61674;BME280;47573;43.832;5.974;2023-02-28T17:53:59;94897.97;;;22.59;70.58
61674;BME280;47573;43.832;5.974;2023-02-28T18:00:40;94889.72;;;22.54;70.57
61674;BME280;47573;43.832;5.974;2023-02-28T18:07:21;94894.66;;;22.57;70.95
61674;BME280;47573;43.832;5.974;2023-02-28T18:14:03;94891.91;;;22.57;71.08
61674;BME280;47573;43.832;5.974;2023-02-28T18:20:44;94896.31;;;22.58;71.04
61674;BME280;47573;43.832;5.974;2023-02-28T18:27:25;94896.91;;;22.60;71.09
61674;BME280;47573;43.832;5.974;2023-02-28T18:34:07;94892.88;;;22.62;71.33
61674;BME280;47573;43.832;5.974;2023-02-28T18:40:51;94897.47;;;22.62;71.28
61674;BME280;47573;43.832;5.974;2023-02-28T18:47:33;94900.25;;;22.67;70.83
61674;BME280;47573;43.832;5.974;2023-02-28T18:54:15;94894.25;;;22.65;71.19
61674;BME280;47573;43.832;5.974;2023-02-28T19:00:56;94904.38;;;22.69;70.78
61674;BME280;47573;43.832;5.974;2023-02-28T19:07:37;94897.63;;;22.72;71.13
61674;BME280;47573;43.832;5.974;2023-02-28T19:14:18;94907.50;;;22.78;71.95
61674;BME280;47573;43.832;5.974;2023-02-28T19:20:59;94901.47;;;22.76;72.70
61674;BME280;47573;43.832;5.974;2023-02-28T19:27:39;94896.03;;;22.76;72.32
61674;BME280;47573;43.832;5.974;2023-02-28T19:34:21;94896.59;;;22.78;71.86
61674;BME280;47573;43.832;5.974;2023-02-28T19:41:04;94900.72;;;22.80;71.47
61674;BME280;47573;43.832;5.974;2023-02-28T19:47:45;94903.19;;;22.82;71.63
61674;BME280;47573;43.832;5.974;2023-02-28T19:54:27;94919.03;;;22.85;71.34
61674;BME280;47573;43.832;5.974;2023-02-28T20:01:09;94912.00;;;22.89;71.74
61674;BME280;47573;43.832;5.974;2023-02-28T20:07:49;94902.53;;;22.91;71.41
61674;BME280;47573;43.832;5.974;2023-02-28T20:14:31;94908.28;;;22.95;71.47
61674;BME280;47573;43.832;5.974;2023-02-28T20:21:12;94909.03;;;22.90;71.83
61674;BME280;47573;43.832;5.974;2023-02-28T20:27:53;94901.03;;;22.84;72.41
61674;BME280;47573;43.832;5.974;2023-02-28T20:34:34;94896.13;;;22.81;72.69
61674;BME280;47573;43.832;5.974;2023-02-28T20:41:15;94909.16;;;22.79;73.07
61674;BME280;47573;43.832;5.974;2023-02-28T20:47:56;94905.91;;;22.82;72.33
61674;BME280;47573;43.832;5.974;2023-02-28T20:54:38;94905.34;;;22.80;72.50
61674;BME280;47573;43.832;5.974;2023-02-28T21:01:19;94898.28;;;22.79;72.64
61674;BME280;47573;43.832;5.974;2023-02-28T21:08:00;94909.97;;;22.79;72.43
61674;BME280;47573;43.832;5.974;2023-02-28T21:14:42;94923.81;;;22.78;72.27
61674;BME280;47573;43.832;5.974;2023-02-28T21:21:23;94927.13;;;22.80;72.85
61674;BME280;47573;43.832;5.974;2023-02-28T21:28:04;94933.09;;;22.77;72.94
61674;BME280;47573;43.832;5.974;2023-02-28T21:34:46;94935.22;;;22.75;72.39
61674;BME280;47573;43.832;5.974;2023-02-28T21:41:26;94926.50;;;22.73;72.60
61674;BME280;47573;43.832;5.974;2023-02-28T21:48:07;94921.06;;;22.73;72.60
61674;BME280;47573;43.832;5.974;2023-02-28T21:54:49;94911.78;;;22.74;72.84
61674;BME280;47573;43.832;5.974;2023-02-28T22:01:31;94905.22;;;22.70;72.77
61674;BME280;47573;43.832;5.974;2023-02-28T22:08:11;94899.19;;;22.68;73.07
61674;BME280;47573;43.832;5.974;2023-02-28T22:14:53;94906.28;;;22.69;72.54
61674;BME280;47573;43.832;5.974;2023-02-28T22:21:34;94897.63;;;22.72;71.64
61674;BME280;47573;43.832;5.974;2023-02-28T22:28:15;94898.09;;;22.69;72.36
61674;BME280;47573;43.832;5.974;2023-02-28T22:34:57;94904.63;;;22.68;72.19
61674;BME280;47573;43.832;5.974;2023-02-28T22:41:38;94900.25;;;22.67;72.34
61674;BME280;47573;43.832;5.974;2023-02-28T22:48:19;94905.69;;;22.67;72.42
61674;BME280;47573;43.832;5.974;2023-02-28T22:55:01;94901.91;;;22.68;72.15
61674;BME280;47573;43.832;5.974;2023-02-28T23:01:41;94904.63;;;22.68;72.13
61674;BME280;47573;43.832;5.974;2023-02-28T23:08:22;94911.13;;;22.67;71.79
61674;BME280;47573;43.832;5.974;2023-02-28T23:15:05;94903.81;;;22.67;72.08
61674;BME280;47573;43.832;5.974;2023-02-28T23:21:46;94895.81;;;22.61;72.00
61674;BME280;47573;43.832;5.974;2023-02-28T23:28:26;94906.69;;;22.61;71.98
61674;BME280;47573;43.832;5.974;2023-02-28T23:35:09;94906.34;;;22.57;72.02
61674;BME280;47573;43.832;5.974;2023-02-28T23:41:51;94899.03;;;22.58;71.29
61674;BME280;47573;43.832;5.974;2023-02-28T23:48:31;94903.56;;;22.35;70.99
61674;BME280;47573;43.832;5.974;2023-02-28T23:55:14;94894.38;;;22.20;70.97
